createdAt,value
2019-02-07T00:01:27.091Z,54.80
2019-02-07T00:03:54.599Z,52.57
2019-02-07T00:06:22.268Z,46.40
2019-02-07T00:08:49.928Z,51.13
2019-02-07T00:11:17.155Z,47.13
2019-02-07T00:13:44.501Z,48.13
2019-02-07T00:16:11.728Z,49.30
2019-02-07T00:18:39.461Z,54.17
2019-02-07T00:21:07.020Z,49.27
2019-02-07T00:23:34.247Z,52.97
2019-02-07T00:26:01.480Z,55.33
2019-02-07T00:28:28.760Z,48.50
2019-02-07T00:30:56.092Z,47.03
2019-02-07T00:33:23.322Z,52.90
2019-02-07T00:35:52.452Z,50.17
2019-02-07T00:38:19.680Z,51.00
2019-02-07T00:40:47.403Z,54.93
2019-02-07T00:43:14.631Z,55.83
2019-02-07T00:45:41.978Z,52.70
2019-02-07T00:48:09.203Z,52.33
2019-02-07T00:50:36.802Z,54.03
2019-02-07T00:53:04.778Z,51.60
2019-02-07T00:55:32.004Z,55.23
2019-02-07T00:57:59.223Z,54.10
2019-02-07T01:00:26.505Z,53.07
2019-02-07T01:02:53.934Z,50.23
2019-02-07T01:05:22.210Z,52.43
2019-02-07T01:07:50.267Z,52.87
2019-02-07T01:10:22.648Z,47.07
2019-02-07T01:12:49.882Z,48.77
2019-02-07T01:15:17.835Z,44.80
2019-02-07T01:17:45.168Z,46.50
2019-02-07T01:20:13.621Z,42.17
2019-02-07T01:22:41.160Z,43.13
2019-02-07T01:25:11.471Z,41.87
2019-02-07T01:27:38.708Z,42.13
2019-02-07T01:30:07.725Z,47.40
2019-02-07T01:32:35.085Z,45.67
2019-02-07T01:35:03.238Z,46.07
2019-02-07T01:37:33.619Z,43.63
2019-02-07T01:40:01.066Z,45.10
2019-02-07T01:42:28.695Z,44.33
2019-02-07T01:44:55.923Z,39.37
2019-02-07T01:47:23.241Z,43.40
2019-02-07T01:49:50.769Z,44.23
2019-02-07T01:52:18.207Z,41.77
2019-02-07T01:54:45.932Z,45.50
2019-02-07T01:57:13.159Z,45.57
2019-02-07T01:59:40.803Z,40.80
2019-02-07T02:02:08.071Z,39.93
2019-02-07T02:04:35.295Z,41.37
2019-02-07T02:07:02.554Z,39.77
2019-02-07T02:09:29.795Z,43.97
2019-02-07T02:11:57.053Z,42.73
2019-02-07T02:14:24.413Z,39.67
2019-02-07T02:16:51.778Z,38.30
2019-02-07T02:19:19.003Z,43.03
2019-02-07T02:21:46.261Z,36.27
2019-02-07T02:24:13.583Z,37.13
2019-02-07T02:26:40.847Z,42.10
2019-02-07T02:29:08.093Z,39.17
2019-02-07T02:31:35.442Z,39.00
2019-02-07T02:34:03.330Z,41.50
2019-02-07T02:36:30.891Z,40.27
2019-02-07T02:38:58.213Z,39.13
2019-02-07T02:41:25.570Z,35.53
2019-02-07T02:43:52.812Z,36.63
2019-02-07T02:46:20.099Z,38.13
2019-02-07T02:48:47.423Z,38.83
2019-02-07T02:51:14.688Z,36.33
2019-02-07T02:53:42.504Z,39.23
2019-02-07T02:56:10.098Z,45.67
2019-02-07T02:58:37.419Z,47.47
2019-02-07T03:01:27.079Z,38.70
2019-02-07T03:04:04.044Z,41.77
2019-02-07T03:06:49.432Z,43.10
2019-02-07T03:09:29.820Z,41.73
2019-02-07T03:12:05.136Z,47.53
2019-02-07T03:14:52.039Z,45.73
2019-02-07T03:17:48.386Z,44.37
2019-02-07T03:20:36.810Z,47.30
2019-02-07T03:23:29.596Z,42.03
2019-02-07T03:26:15.444Z,43.03
2019-02-07T03:29:14.472Z,43.23
2019-02-07T03:32:07.513Z,41.83
2019-02-07T03:34:50.696Z,41.27
2019-02-07T03:37:49.641Z,44.10
2019-02-07T03:40:39.811Z,45.00
2019-02-07T03:43:23.182Z,42.23
2019-02-07T03:46:10.429Z,41.07
2019-02-07T03:48:45.935Z,40.97
2019-02-07T03:51:51.279Z,43.77
2019-02-07T03:54:44.292Z,43.13
2019-02-07T03:57:39.986Z,48.83
2019-02-07T04:00:28.640Z,51.70
2019-02-07T04:03:27.456Z,54.33
2019-02-07T04:06:17.116Z,57.17
2019-02-07T04:09:03.864Z,49.50
2019-02-07T04:11:59.897Z,49.80
2019-02-07T04:14:45.376Z,50.40
2019-02-07T04:17:30.732Z,56.13
2019-02-07T04:20:32.488Z,59.00
2019-02-07T04:23:28.163Z,55.77
2019-02-07T04:26:20.955Z,62.47
2019-02-07T04:28:56.856Z,60.73
2019-02-07T04:31:29.800Z,46.83
2019-02-07T04:34:34.450Z,45.17
2019-02-07T04:37:20.253Z,53.93
2019-02-07T04:40:14.245Z,55.97
2019-02-07T04:42:52.106Z,60.00
2019-02-07T04:45:44.993Z,53.37
2019-02-07T04:48:30.481Z,61.63
2019-02-07T04:51:15.808Z,55.73
2019-02-07T04:54:02.868Z,63.03
2019-02-07T04:56:50.015Z,65.23
2019-02-07T04:59:35.383Z,59.43
2019-02-07T05:02:20.512Z,63.70
2019-02-07T05:04:58.386Z,64.33
2019-02-07T05:07:47.747Z,60.27
2019-02-07T05:10:37.994Z,59.77
2019-02-07T05:13:33.744Z,45.03
2019-02-07T05:16:23.659Z,59.63
2019-02-07T05:19:10.409Z,58.87
2019-02-07T05:22:05.739Z,61.53
2019-02-07T05:25:01.832Z,60.07
2019-02-07T05:27:41.030Z,61.53
2019-02-07T05:30:45.229Z,60.93
2019-02-07T05:33:27.448Z,56.80
2019-02-07T05:36:12.968Z,45.03
2019-02-07T05:38:58.205Z,41.87
2019-02-07T05:41:44.051Z,44.47
2019-02-07T05:44:28.779Z,41.83
2019-02-07T05:47:15.538Z,46.03
2019-02-07T05:50:00.832Z,54.20
2019-02-07T05:52:59.884Z,58.83
2019-02-07T05:55:45.583Z,56.47
2019-02-07T05:58:47.985Z,58.70
2019-02-07T06:01:33.311Z,57.50
2019-02-07T06:04:05.442Z,58.03
2019-02-07T06:07:04.135Z,60.53
2019-02-07T06:09:49.058Z,53.73
2019-02-07T06:12:42.019Z,57.67
2019-02-07T06:15:29.320Z,48.30
2019-02-07T06:18:05.033Z,46.43
2019-02-07T06:20:50.671Z,46.50
2019-02-07T06:23:43.020Z,50.23
2019-02-07T06:26:28.581Z,49.93
2019-02-07T06:29:17.935Z,48.93
2019-02-07T06:32:03.195Z,50.50
2019-02-07T06:34:52.463Z,48.53
2019-02-07T06:37:45.453Z,46.83
2019-02-07T06:40:38.517Z,50.73
2019-02-07T06:43:23.990Z,50.73
2019-02-07T06:46:01.660Z,46.40
2019-02-07T06:48:54.611Z,46.73
2019-02-07T06:51:38.319Z,57.17
2019-02-07T06:54:24.444Z,51.63
2019-02-07T06:57:16.747Z,45.83
2019-02-07T06:59:51.167Z,48.10
2019-02-07T07:02:30.632Z,46.77
2019-02-07T07:05:16.123Z,49.70
2019-02-07T07:07:54.640Z,49.63
2019-02-07T07:10:44.137Z,48.20
2019-02-07T07:13:30.173Z,50.53
2019-02-07T07:16:17.222Z,49.03
2019-02-07T07:19:06.595Z,46.73
2019-02-07T07:21:56.707Z,47.07
2019-02-07T07:24:42.139Z,47.93
2019-02-07T07:27:22.513Z,47.03
2019-02-07T07:30:09.592Z,47.13
2019-02-07T07:33:06.379Z,42.57
2019-02-07T07:35:41.571Z,42.27
2019-02-07T07:38:29.043Z,40.13
2019-02-07T07:41:21.838Z,38.23
2019-02-07T07:44:04.601Z,37.57
2019-02-07T07:46:51.320Z,39.93
2019-02-07T07:49:46.815Z,40.93
2019-02-07T07:52:33.848Z,36.47
2019-02-07T07:55:21.987Z,35.70
2019-02-07T07:58:09.037Z,40.20
2019-02-07T08:00:56.122Z,40.00
2019-02-07T08:03:54.973Z,37.67
2019-02-07T08:06:33.945Z,40.43
2019-02-07T08:09:16.347Z,41.43
2019-02-07T08:12:15.951Z,44.37
2019-02-07T08:14:55.351Z,42.03
2019-02-07T08:18:00.814Z,45.17
2019-02-07T08:20:50.217Z,38.90
2019-02-07T08:23:28.376Z,40.67
2019-02-07T08:26:14.211Z,45.53
2019-02-07T08:29:04.703Z,45.23
2019-02-07T08:31:40.764Z,50.67
2019-02-07T08:34:33.297Z,44.23
2019-02-07T08:37:17.133Z,53.37
2019-02-07T08:40:09.847Z,46.27
2019-02-07T08:42:49.809Z,51.23
2019-02-07T08:45:29.133Z,43.83
2019-02-07T08:48:14.332Z,53.63
2019-02-07T08:51:12.723Z,57.43
2019-02-07T08:54:00.223Z,54.43
2019-02-07T08:56:47.280Z,44.57
2019-02-07T08:59:34.100Z,55.83
2019-02-07T09:02:18.704Z,59.20
2019-02-07T09:05:12.273Z,57.07
2019-02-07T09:08:03.384Z,52.47
2019-02-07T09:10:48.813Z,54.87
2019-02-07T09:13:40.382Z,56.20
2019-02-07T09:16:36.274Z,53.17
2019-02-07T09:19:38.561Z,53.97
2019-02-07T09:22:24.359Z,48.30
2019-02-07T09:25:17.012Z,47.03
2019-02-07T09:28:02.537Z,46.03
2019-02-07T09:31:01.431Z,44.40
2019-02-07T09:34:06.097Z,40.83
2019-02-07T09:36:58.552Z,45.60
2019-02-07T09:39:48.076Z,47.90
2019-02-07T09:42:44.004Z,48.43
2019-02-07T09:45:44.492Z,43.10
2019-02-07T09:48:29.816Z,44.33
2019-02-07T09:51:22.263Z,43.33
2019-02-07T09:54:08.400Z,48.87
2019-02-07T09:56:52.560Z,47.03
2019-02-07T09:59:37.769Z,47.33
2019-02-07T10:02:17.559Z,44.53
2019-02-07T10:05:04.433Z,53.40
2019-02-07T10:07:54.567Z,49.00
2019-02-07T10:10:53.837Z,43.40
2019-02-07T10:13:46.496Z,42.73
2019-02-07T10:16:39.616Z,40.30
2019-02-07T10:19:26.354Z,41.83
2019-02-07T10:22:11.803Z,42.93
2019-02-07T10:24:58.543Z,40.63
2019-02-07T10:27:43.940Z,40.47
2019-02-07T10:30:36.637Z,38.33
2019-02-07T10:33:25.037Z,43.77
2019-02-07T10:36:03.917Z,41.53
2019-02-07T10:38:56.605Z,45.07
2019-02-07T10:41:43.489Z,38.77
2019-02-07T10:44:33.478Z,41.80
2019-02-07T10:47:30.541Z,44.70
2019-02-07T10:50:29.637Z,42.10
2019-02-07T10:53:19.739Z,44.00
2019-02-07T10:56:17.372Z,42.47
2019-02-07T10:59:00.356Z,45.07
2019-02-07T11:01:47.680Z,43.47
2019-02-07T11:04:33.094Z,44.13
2019-02-07T11:07:29.349Z,46.73
2019-02-07T11:10:14.121Z,41.70
2019-02-07T11:13:14.986Z,46.87
2019-02-07T11:16:00.247Z,44.10
2019-02-07T11:19:04.965Z,56.47
2019-02-07T11:21:51.732Z,54.13
2019-02-07T11:24:41.803Z,48.67
2019-02-07T11:27:28.579Z,46.77
2019-02-07T11:30:17.831Z,48.10
2019-02-07T11:32:51.263Z,48.50
2019-02-07T11:35:36.396Z,46.00
2019-02-07T11:38:26.452Z,46.13
2019-02-07T11:41:16.049Z,52.70
2019-02-07T11:44:01.439Z,52.10
2019-02-07T11:47:04.957Z,55.13
2019-02-07T11:49:41.512Z,56.23
2019-02-07T11:52:37.602Z,56.33
2019-02-07T11:55:17.600Z,64.30
2019-02-07T11:58:10.672Z,57.93
2019-02-07T12:01:06.600Z,51.83
2019-02-07T12:03:52.155Z,50.63
2019-02-07T12:06:38.999Z,50.93
2019-02-07T12:09:30.716Z,51.80
2019-02-07T12:12:16.145Z,56.47
2019-02-07T12:15:13.683Z,45.83
2019-02-07T12:17:59.075Z,48.93
2019-02-07T12:20:48.679Z,51.13
2019-02-07T12:23:26.567Z,54.53
2019-02-07T12:26:08.883Z,55.57
2019-02-07T12:28:55.443Z,53.97
2019-02-07T12:31:44.593Z,52.00
2019-02-07T12:34:46.499Z,56.43
2019-02-07T12:37:31.883Z,52.70
2019-02-07T12:40:17.165Z,53.57
2019-02-07T12:43:02.420Z,54.03
2019-02-07T12:45:49.228Z,49.67
2019-02-07T12:48:41.634Z,53.07
2019-02-07T12:51:31.178Z,50.23
2019-02-07T12:54:26.902Z,45.43
2019-02-07T12:57:22.932Z,59.30
2019-02-07T13:00:12.644Z,52.47
2019-02-07T13:03:07.956Z,69.57
2019-02-07T13:05:53.514Z,49.03
2019-02-07T13:08:40.311Z,51.70
2019-02-07T13:11:30.088Z,56.67
2019-02-07T13:14:14.301Z,44.10
2019-02-07T13:17:00.074Z,53.33
2019-02-07T13:19:40.737Z,41.03
2019-02-07T13:22:31.428Z,42.37
2019-02-07T13:25:07.159Z,39.40
2019-02-07T13:27:52.665Z,45.03
2019-02-07T13:30:42.094Z,37.80
2019-02-07T13:33:38.035Z,42.13
2019-02-07T13:36:24.779Z,36.63
2019-02-07T13:39:06.138Z,37.00
2019-02-07T13:41:43.177Z,32.00
2019-02-07T13:44:45.283Z,35.73
2019-02-07T13:47:30.827Z,35.87
2019-02-07T13:50:08.398Z,35.40
2019-02-07T13:53:03.987Z,34.00
2019-02-07T13:55:50.727Z,33.67
2019-02-07T13:58:36.449Z,31.37
2019-02-07T14:01:22.579Z,30.33
2019-02-07T14:04:08.189Z,29.23
2019-02-07T14:07:04.446Z,30.50
2019-02-07T14:09:39.486Z,33.43
2019-02-07T14:12:25.493Z,33.97
2019-02-07T14:15:20.925Z,31.70
2019-02-07T14:18:26.040Z,35.23
2019-02-07T14:21:22.073Z,30.97
2019-02-07T14:24:07.605Z,36.43
2019-02-07T14:26:52.807Z,32.83
2019-02-07T14:29:42.127Z,34.90
2019-02-07T14:32:16.378Z,31.70
2019-02-07T14:35:02.184Z,32.87
2019-02-07T14:37:58.092Z,33.33
2019-02-07T14:40:37.735Z,30.00
2019-02-07T14:43:26.136Z,36.33
2019-02-07T14:46:11.357Z,31.73
2019-02-07T14:48:38.646Z,34.43
2019-02-07T14:51:06.311Z,32.80
2019-02-07T14:53:34.128Z,36.23
2019-02-07T14:56:01.456Z,30.47
2019-02-07T14:58:28.863Z,34.57
2019-02-07T15:00:56.082Z,31.53
2019-02-07T15:03:24.143Z,35.50
2019-02-07T15:05:51.481Z,33.83
2019-02-07T15:08:18.896Z,31.10
2019-02-07T15:10:46.128Z,31.90
2019-02-07T15:13:13.347Z,31.20
2019-02-07T15:15:40.571Z,28.03
2019-02-07T15:18:08.032Z,27.73
2019-02-07T15:20:35.695Z,29.00
2019-02-07T15:23:02.942Z,35.10
2019-02-07T15:25:30.288Z,25.07
2019-02-07T15:27:57.955Z,34.83
2019-02-07T15:30:25.500Z,28.13
2019-02-07T15:32:52.733Z,33.17
2019-02-07T15:35:23.317Z,31.30
2019-02-07T15:37:50.561Z,29.17
2019-02-07T15:40:20.621Z,27.60
2019-02-07T15:42:48.151Z,27.30
2019-02-07T15:45:15.811Z,28.07
2019-02-07T15:47:43.131Z,22.80
2019-02-07T15:50:22.806Z,26.10
2019-02-07T15:52:52.123Z,24.63
2019-02-07T15:55:20.186Z,28.30
2019-02-07T15:57:47.704Z,27.47
2019-02-07T16:00:45.324Z,23.67
2019-02-07T16:03:18.408Z,26.97
2019-02-07T16:05:45.776Z,27.73
2019-02-07T16:08:12.998Z,27.83
2019-02-07T16:10:40.371Z,28.13
2019-02-07T16:13:07.592Z,27.73
2019-02-07T16:15:34.860Z,23.73
2019-02-07T16:18:02.105Z,27.27
2019-02-07T16:20:29.772Z,25.20
2019-02-07T16:22:59.012Z,22.83
2019-02-07T16:25:26.512Z,23.67
2019-02-07T16:27:53.823Z,27.50
2019-02-07T16:30:21.952Z,30.47
2019-02-07T16:32:49.369Z,25.20
2019-02-07T16:35:16.787Z,25.13
2019-02-07T16:37:44.096Z,29.13
2019-02-07T16:40:12.284Z,30.53
2019-02-07T16:42:39.509Z,29.97
2019-02-07T16:45:10.043Z,33.70
2019-02-07T16:47:37.265Z,28.20
2019-02-07T16:50:06.503Z,31.10
2019-02-07T16:52:34.129Z,23.80
2019-02-07T16:55:01.443Z,28.20
2019-02-07T16:57:28.983Z,26.30
2019-02-07T16:59:56.261Z,28.13
2019-02-07T17:02:24.040Z,26.57
2019-02-07T17:04:51.333Z,25.00
2019-02-07T17:07:18.657Z,31.20
2019-02-07T17:09:45.871Z,27.23
2019-02-07T17:12:13.581Z,27.63
2019-02-07T17:14:40.804Z,25.53
2019-02-07T17:17:08.133Z,27.20
2019-02-07T17:19:35.348Z,26.70
2019-02-07T17:22:02.641Z,25.40
2019-02-07T17:24:29.942Z,29.80
2019-02-07T17:26:57.296Z,24.90
2019-02-07T17:29:24.605Z,30.30
2019-02-07T17:31:52.279Z,22.27
2019-02-07T17:34:19.508Z,28.10
2019-02-07T17:36:47.863Z,26.50
2019-02-07T17:39:15.246Z,23.33
2019-02-07T17:41:43.001Z,25.10
2019-02-07T17:44:10.418Z,27.23
2019-02-07T17:46:38.221Z,30.37
2019-02-07T17:49:05.632Z,48.30
2019-02-07T17:51:32.920Z,54.60
2019-02-07T17:54:00.837Z,47.20
2019-02-07T17:56:28.211Z,37.43
2019-02-07T17:58:55.455Z,48.60
2019-02-07T18:01:22.886Z,32.73
2019-02-07T18:03:50.611Z,37.37
2019-02-07T18:06:18.408Z,31.57
2019-02-07T18:08:46.714Z,34.70
2019-02-07T18:11:14.102Z,41.07
2019-02-07T18:13:41.331Z,41.77
2019-02-07T18:16:08.718Z,29.80
2019-02-07T18:18:36.264Z,34.17
2019-02-07T18:21:04.129Z,35.57
2019-02-07T18:23:31.351Z,42.93
2019-02-07T18:25:58.636Z,43.60
2019-02-07T18:28:25.911Z,38.93
2019-02-07T18:30:53.305Z,41.97
2019-02-07T18:33:20.640Z,39.83
2019-02-07T18:35:48.018Z,45.77
2019-02-07T18:38:15.260Z,46.17
2019-02-07T18:40:42.990Z,42.03
2019-02-07T18:43:10.311Z,49.83
2019-02-07T18:45:37.739Z,38.00
2019-02-07T18:48:05.463Z,35.23
2019-02-07T18:50:34.792Z,41.03
2019-02-07T18:53:02.020Z,35.47
2019-02-07T18:55:29.354Z,36.60
2019-02-07T18:57:56.992Z,39.57
2019-02-07T19:00:26.569Z,42.07
2019-02-07T19:02:53.988Z,29.83
2019-02-07T19:05:21.892Z,32.00
2019-02-07T19:07:49.120Z,39.73
2019-02-07T19:10:18.523Z,34.27
2019-02-07T19:12:45.973Z,35.40
2019-02-07T19:15:16.428Z,37.40
2019-02-07T19:17:43.754Z,35.40
2019-02-07T19:20:13.587Z,35.70
2019-02-07T19:22:40.967Z,32.10
2019-02-07T19:25:08.755Z,33.30
2019-02-07T19:27:36.854Z,32.93
2019-02-07T19:30:09.699Z,34.33
2019-02-07T19:32:37.311Z,29.57
2019-02-07T19:35:05.323Z,34.50
2019-02-07T19:37:32.685Z,35.47
2019-02-07T19:40:00.104Z,39.23
2019-02-07T19:42:27.481Z,52.50
2019-02-07T19:44:55.175Z,37.97
2019-02-07T19:47:22.626Z,33.90
2019-02-07T19:49:50.257Z,32.13
2019-02-07T19:52:17.541Z,35.43
2019-02-07T19:54:44.776Z,38.33
2019-02-07T19:57:12.155Z,33.57
2019-02-07T19:59:39.383Z,37.33
2019-02-07T20:02:07.051Z,33.63
2019-02-07T20:04:34.367Z,30.10
2019-02-07T20:07:01.643Z,34.40
2019-02-07T20:09:29.382Z,25.10
2019-02-07T20:11:57.253Z,34.47
2019-02-07T20:14:24.635Z,33.07
2019-02-07T20:16:52.016Z,30.07
2019-02-07T20:19:19.347Z,32.27
2019-02-07T20:21:48.057Z,36.07
2019-02-07T20:24:15.723Z,34.27
2019-02-07T20:26:43.508Z,32.17
2019-02-07T20:29:10.835Z,31.73
2019-02-07T20:31:38.219Z,26.73
2019-02-07T20:34:06.151Z,26.40
2019-02-07T20:36:33.483Z,23.67
2019-02-07T20:39:01.025Z,22.97
2019-02-07T20:41:28.360Z,26.70
2019-02-07T20:43:55.679Z,25.67
2019-02-07T20:46:23.003Z,23.53
2019-02-07T20:48:50.975Z,26.83
2019-02-07T20:51:19.151Z,23.20
2019-02-07T20:53:46.483Z,18.07
2019-02-07T20:56:13.716Z,23.90
2019-02-07T20:58:41.099Z,22.77
2019-02-07T21:01:08.451Z,20.07
2019-02-07T21:03:36.539Z,23.37
2019-02-07T21:06:04.068Z,19.83
2019-02-07T21:08:31.704Z,20.67
2019-02-07T21:10:58.948Z,18.77
2019-02-07T21:13:26.227Z,16.20
2019-02-07T21:15:53.572Z,17.30
2019-02-07T21:18:21.175Z,16.93
2019-02-07T21:20:48.839Z,15.90
2019-02-07T21:23:16.181Z,18.67
2019-02-07T21:25:46.084Z,18.83
2019-02-07T21:28:13.730Z,17.97
2019-02-07T21:30:41.059Z,16.00
2019-02-07T21:33:08.403Z,20.83
2019-02-07T21:35:36.031Z,16.47
2019-02-07T21:38:04.567Z,15.40
2019-02-07T21:40:31.995Z,15.97
2019-02-07T21:43:00.172Z,10.20
2019-02-07T21:45:27.996Z,13.27
2019-02-07T21:47:56.005Z,15.37
2019-02-07T21:50:24.415Z,14.90
2019-02-07T21:52:52.033Z,13.67
2019-02-07T21:55:20.639Z,17.77
2019-02-07T21:57:47.915Z,12.77
2019-02-07T22:00:20.923Z,15.27
2019-02-07T22:02:48.808Z,13.63
2019-02-07T22:05:16.132Z,18.47
2019-02-07T22:07:43.496Z,15.73
2019-02-07T22:10:11.960Z,18.47
2019-02-07T22:12:39.367Z,12.47
2019-02-07T22:15:09.404Z,15.23
2019-02-07T22:17:36.664Z,13.73
2019-02-07T22:20:07.615Z,13.30
2019-02-07T22:22:35.240Z,16.10
2019-02-07T22:25:03.058Z,17.73
2019-02-07T22:27:30.368Z,12.70
2019-02-07T22:29:57.683Z,16.67
2019-02-07T22:32:24.913Z,12.77
2019-02-07T22:34:52.260Z,15.30
2019-02-07T22:37:20.013Z,14.03
2019-02-07T22:39:47.341Z,16.17
2019-02-07T22:42:14.667Z,19.50
2019-02-07T22:44:41.904Z,16.10
2019-02-07T22:47:09.135Z,17.07
2019-02-07T22:49:36.380Z,19.07
2019-02-07T22:52:04.215Z,14.93
2019-02-07T22:54:31.455Z,17.80
2019-02-07T22:56:58.993Z,18.07
2019-02-07T22:59:26.326Z,17.33
2019-02-07T23:01:55.291Z,16.37
2019-02-07T23:04:23.579Z,17.90
2019-02-07T23:06:50.906Z,17.53
2019-02-07T23:09:18.635Z,16.20
2019-02-07T23:11:45.869Z,18.80
2019-02-07T23:14:13.606Z,14.73
2019-02-07T23:16:40.932Z,16.10
2019-02-07T23:19:08.175Z,19.27
2019-02-07T23:21:35.483Z,16.83
2019-02-07T23:24:03.812Z,15.80
2019-02-07T23:26:31.032Z,15.10
2019-02-07T23:28:58.261Z,16.40
2019-02-07T23:31:26.067Z,16.53
2019-02-07T23:33:53.329Z,18.30
2019-02-07T23:36:20.691Z,17.33
2019-02-07T23:38:48.263Z,19.37
2019-02-07T23:41:15.483Z,17.70
2019-02-07T23:43:46.153Z,17.43
2019-02-07T23:46:11.857Z,13.23
2019-02-07T23:48:39.308Z,16.00
2019-02-07T23:51:06.601Z,17.97
2019-02-07T23:53:34.043Z,14.17
2019-02-07T23:56:01.376Z,16.47
2019-02-07T23:58:28.695Z,15.10
